Time;durP1;ratioP1;P1;durP2;ratioP2;P2;SDS_P1;SDS_P2;PMS_P1;PMS_P2;Temp;Humidity;BMP_temperature;BMP_pressure;BME280_temperature;BME280_humidity;BME280_pressure;Samples;Min_cycle;Max_cycle;Signal;HPM_P1;HPM_P2
2023/09/28 00:02:54;;;;;;;5.70;4.87;;;;;;;;;;5055722;28;20773;-74
2023/09/28 00:05:21;;;;;;;6.47;4.80;;;;;;;;;;5055837;28;20861;-75
2023/09/28 00:07:53;;;;;;;13.30;8.90;;;;;;;;;;5055599;28;20507;-74
2023/09/28 00:10:19;;;;;;;12.67;8.43;;;;;;;;;;5055890;28;20417;-75
2023/09/28 00:12:47;;;;;;;9.00;7.03;;;;;;;;;;5055797;28;20437;-74
2023/09/28 00:15:15;;;;;;;9.67;7.67;;;;;;;;;;5068460;28;20468;-74
2023/09/28 00:17:42;;;;;;;7.80;5.83;;;;;;;;;;5074922;28;20527;-73
2023/09/28 00:20:13;;;;;;;6.90;5.10;;;;;;;;;;5075709;28;20441;-74
2023/09/28 00:22:39;;;;;;;6.33;5.20;;;;;;;;;;5075613;28;20843;-74
2023/09/28 00:25:11;;;;;;;7.60;5.87;;;;;;;;;;5074513;28;20455;-74
2023/09/28 00:27:38;;;;;;;6.10;5.10;;;;;;;;;;5075322;28;20423;-74
2023/09/28 00:30:09;;;;;;;7.03;5.03;;;;;;;;;;5075165;28;20498;-74
2023/09/28 00:32:35;;;;;;;7.40;5.27;;;;;;;;;;5075176;28;20902;-74
2023/09/28 00:35:04;;;;;;;7.97;5.07;;;;;;;;;;5063714;28;20465;-75
2023/09/28 00:37:30;;;;;;;6.20;4.33;;;;;;;;;;5055240;28;20438;-74
2023/09/28 00:39:58;;;;;;;5.27;4.77;;;;;;;;;;5055246;28;20444;-74
2023/09/28 00:42:27;;;;;;;5.83;5.07;;;;;;;;;;5055232;28;20838;-74
2023/09/28 00:44:55;;;;;;;6.00;4.57;;;;;;;;;;5055122;28;20843;-74
2023/09/28 00:47:23;;;;;;;4.17;3.70;;;;;;;;;;5055373;28;20448;-74
2023/09/28 00:49:51;;;;;;;4.90;3.97;;;;;;;;;;5055404;28;20535;-74
2023/09/28 00:52:20;;;;;;;4.50;3.70;;;;;;;;;;5054912;28;20516;-74
2023/09/28 00:54:49;;;;;;;4.33;3.23;;;;;;;;;;5054925;28;20437;-74
2023/09/28 00:57:17;;;;;;;4.73;3.43;;;;;;;;;;5054835;28;20548;-74
2023/09/28 00:59:46;;;;;;;4.70;3.73;;;;;;;;;;5054648;28;20495;-74
2023/09/28 01:02:14;;;;;;;4.73;3.47;;;;;;;;;;5055137;28;20491;-74
2023/09/28 01:04:42;;;;;;;5.33;3.80;;;;;;;;;;5054885;28;20771;-74
2023/09/28 01:07:12;;;;;;;6.70;4.30;;;;;;;;;;5054762;28;20787;-74
2023/09/28 01:09:39;;;;;;;4.17;3.53;;;;;;;;;;5054535;28;20438;-74
2023/09/28 01:12:08;;;;;;;4.03;3.40;;;;;;;;;;5055004;28;20425;-75
2023/09/28 01:14:36;;;;;;;3.50;2.63;;;;;;;;;;5059783;28;20449;-74
2023/09/28 01:17:04;;;;;;;6.00;4.20;;;;;;;;;;5072935;28;20519;-74
2023/09/28 01:19:32;;;;;;;5.50;4.60;;;;;;;;;;5074043;28;20473;-74
2023/09/28 01:21:58;;;;;;;4.67;4.00;;;;;;;;;;5074351;28;20910;-74
2023/09/28 01:24:27;;;;;;;5.65;4.60;;;;;;;;;;5069348;28;20441;-74
2023/09/28 01:26:54;;;;;;;6.50;4.20;;;;;;;;;;5054600;28;20687;-74
2023/09/28 01:29:24;;;;;;;11.70;4.07;;;;;;;;;;5054222;28;20442;-74
2023/09/28 01:31:50;;;;;;;7.33;5.73;;;;;;;;;;5054516;28;20434;-74
2023/09/28 01:34:19;;;;;;;8.30;5.30;;;;;;;;;;5055330;28;20773;-74
2023/09/28 01:36:45;;;;;;;6.23;4.47;;;;;;;;;;5066265;28;20478;-74
2023/09/28 01:39:13;;;;;;;7.43;4.87;;;;;;;;;;5074126;28;20440;-74
2023/09/28 01:41:40;;;;;;;5.80;5.20;;;;;;;;;;5074225;28;20599;-75
2023/09/28 01:44:08;;;;;;;5.43;4.03;;;;;;;;;;5072340;28;20437;-74
2023/09/28 01:46:34;;;;;;;7.03;5.47;;;;;;;;;;5054110;28;20450;-74
2023/09/28 01:49:04;;;;;;;7.30;4.80;;;;;;;;;;5054160;28;20446;-74
2023/09/28 01:51:30;;;;;;;6.13;5.13;;;;;;;;;;5054235;28;20433;-74
2023/09/28 01:53:57;;;;;;;6.10;5.00;;;;;;;;;;5053911;28;20438;-75
2023/09/28 01:56:23;;;;;;;7.07;4.60;;;;;;;;;;5054446;28;21014;-74
2023/09/28 01:58:52;;;;;;;5.33;4.83;;;;;;;;;;5053631;28;20441;-74
2023/09/28 02:01:29;;;;;;;4.97;4.47;;;;;;;;;;5053859;28;20540;-75
2023/09/28 02:03:56;;;;;;;5.43;3.90;;;;;;;;;;5053907;28;20460;-74
2023/09/28 02:06:23;;;;;;;4.70;3.92;;;;;;;;;;5054084;28;20498;-74
2023/09/28 02:08:50;;;;;;;4.93;3.93;;;;;;;;;;5053864;28;20199;-74
2023/09/28 02:11:16;;;;;;;4.27;3.63;;;;;;;;;;5053770;28;20502;-74
2023/09/28 02:13:44;;;;;;;4.10;3.40;;;;;;;;;;5053629;28;20441;-74
2023/09/28 02:16:12;;;;;;;5.30;3.40;;;;;;;;;;5054385;28;20484;-74
2023/09/28 02:18:42;;;;;;;7.30;4.77;;;;;;;;;;5053218;28;20465;-74
2023/09/28 02:21:12;;;;;;;5.40;3.80;;;;;;;;;;5053103;28;20434;-75
2023/09/28 02:23:40;;;;;;;4.20;3.70;;;;;;;;;;5053592;28;20417;-74
2023/09/28 02:26:06;;;;;;;5.13;3.93;;;;;;;;;;5070325;28;20255;-74
2023/09/28 02:28:33;;;;;;;5.65;4.65;;;;;;;;;;5072605;28;20476;-74
2023/09/28 02:31:06;;;;;;;7.00;4.50;;;;;;;;;;5071723;28;20187;-75
2023/09/28 02:33:35;;;;;;;5.33;4.83;;;;;;;;;;5072657;28;20866;-74
2023/09/28 02:36:08;;;;;;;5.57;3.90;;;;;;;;;;5072128;28;20978;-74
2023/09/28 02:38:35;;;;;;;10.27;4.07;;;;;;;;;;5073140;28;20512;-74
2023/09/28 02:41:01;;;;;;;5.17;3.30;;;;;;;;;;5064862;28;20915;-74
2023/09/28 02:43:30;;;;;;;4.32;3.65;;;;;;;;;;5052806;28;20446;-74
2023/09/28 02:45:57;;;;;;;3.40;2.70;;;;;;;;;;5053322;28;20241;-74
2023/09/28 02:48:24;;;;;;;3.95;3.15;;;;;;;;;;5053552;28;20516;-75
2023/09/28 02:50:57;;;;;;;3.90;2.73;;;;;;;;;;5053958;28;20183;-75
2023/09/28 02:53:25;;;;;;;4.15;3.30;;;;;;;;;;5053190;28;20459;-74
2023/09/28 02:55:53;;;;;;;6.60;3.10;;;;;;;;;;5052767;28;20225;-74
2023/09/28 02:58:22;;;;;;;3.07;2.37;;;;;;;;;;5053158;28;20531;-75
2023/09/28 03:00:48;;;;;;;3.80;2.97;;;;;;;;;;5057406;28;20482;-74
2023/09/28 03:03:16;;;;;;;3.45;2.78;;;;;;;;;;5072896;28;20443;-74
2023/09/28 03:05:43;;;;;;;4.82;2.55;;;;;;;;;;5072674;28;20255;-75
2023/09/28 03:08:14;;;;;;;3.70;2.55;;;;;;;;;;5072300;28;20713;-74
2023/09/28 03:10:42;;;;;;;3.88;1.85;;;;;;;;;;5071543;28;20171;-74
2023/09/28 03:13:09;;;;;;;4.27;2.50;;;;;;;;;;5072384;28;20660;-74
2023/09/28 03:15:36;;;;;;;2.87;1.90;;;;;;;;;;5072962;28;20464;-75
2023/09/28 03:18:06;;;;;;;3.22;1.50;;;;;;;;;;5072459;28;20469;-74
2023/09/28 03:20:33;;;;;;;2.70;1.83;;;;;;;;;;5069767;28;20706;-75
2023/09/28 03:23:09;;;;;;;2.47;1.30;;;;;;;;;;5052429;28;20610;-74
2023/09/28 03:25:37;;;;;;;3.00;2.20;;;;;;;;;;5052894;28;20182;-74
2023/09/28 03:28:06;;;;;;;3.33;2.30;;;;;;;;;;5052811;28;20226;-74
2023/09/28 03:30:32;;;;;;;3.10;2.28;;;;;;;;;;5053434;28;20198;-74
2023/09/28 03:33:00;;;;;;;3.10;2.05;;;;;;;;;;5052449;28;20191;-74
2023/09/28 03:35:27;;;;;;;2.60;1.70;;;;;;;;;;5052780;28;20199;-75
2023/09/28 03:37:57;;;;;;;2.58;1.50;;;;;;;;;;5052463;28;20191;-74
2023/09/28 03:40:33;;;;;;;2.67;2.03;;;;;;;;;;5055421;28;20197;-75
2023/09/28 03:43:02;;;;;;;4.00;2.13;;;;;;;;;;5072512;28;20551;-74
2023/09/28 03:45:31;;;;;;;3.15;2.00;;;;;;;;;;5072597;28;20221;-75
2023/09/28 03:48:02;;;;;;;5.35;3.00;;;;;;;;;;5075276;28;20190;-74
2023/09/28 03:50:30;;;;;;;3.38;2.45;;;;;;;;;;5074703;28;20179;-74
2023/09/28 03:53:05;;;;;;;4.65;2.75;;;;;;;;;;5075608;28;20201;-74
2023/09/28 03:55:35;;;;;;;3.75;2.63;;;;;;;;;;5075888;28;20182;-74
2023/09/28 03:58:05;;;;;;;5.65;2.72;;;;;;;;;;5076058;28;20182;-74
2023/09/28 04:00:33;;;;;;;4.97;3.90;;;;;;;;;;5062226;28;20193;-74
2023/09/28 04:03:00;;;;;;;4.43;3.75;;;;;;;;;;5056096;28;20195;-74
2023/09/28 04:05:31;;;;;;;8.05;4.93;;;;;;;;;;5055960;28;20244;-74
2023/09/28 04:07:58;;;;;;;3.75;3.30;;;;;;;;;;5056053;28;20274;-74
2023/09/28 04:10:26;;;;;;;4.45;3.45;;;;;;;;;;5056537;28;20269;-74
2023/09/28 04:12:59;;;;;;;4.55;3.42;;;;;;;;;;5057725;28;20187;-74
2023/09/28 04:15:29;;;;;;;5.47;3.83;;;;;;;;;;5055976;28;20237;-75
2023/09/28 04:17:56;;;;;;;3.83;3.13;;;;;;;;;;5055712;28;20245;-75
2023/09/28 04:20:24;;;;;;;4.10;3.70;;;;;;;;;;5055867;28;20179;-74
2023/09/28 04:22:52;;;;;;;5.65;3.92;;;;;;;;;;5062548;28;20183;-74
2023/09/28 04:25:21;;;;;;;3.90;3.28;;;;;;;;;;5073479;28;20273;-74
2023/09/28 04:27:51;;;;;;;4.30;3.05;;;;;;;;;;5075363;28;20213;-74
2023/09/28 04:30:18;;;;;;;5.70;3.80;;;;;;;;;;5075698;28;20617;-74
2023/09/28 04:32:50;;;;;;;5.25;3.65;;;;;;;;;;5069240;28;20274;-74
2023/09/28 04:35:18;;;;;;;4.90;4.05;;;;;;;;;;5055341;28;20237;-74
2023/09/28 04:37:47;;;;;;;5.47;3.65;;;;;;;;;;5055478;28;20205;-74
2023/09/28 04:40:24;;;;;;;5.10;3.50;;;;;;;;;;5055103;28;20679;-74
2023/09/28 04:42:52;;;;;;;4.37;3.77;;;;;;;;;;5055996;28;20626;-74
2023/09/28 04:45:24;;;;;;;4.70;3.50;;;;;;;;;;5055488;28;20756;-74
2023/09/28 04:47:54;;;;;;;5.10;4.00;;;;;;;;;;5054995;28;20210;-74
2023/09/28 04:50:22;;;;;;;5.22;4.35;;;;;;;;;;5054875;28;20280;-74
2023/09/28 04:52:51;;;;;;;4.65;3.90;;;;;;;;;;5060871;28;20190;-74
2023/09/28 04:55:19;;;;;;;5.40;3.60;;;;;;;;;;5075221;28;20194;-74
2023/09/28 04:57:48;;;;;;;5.47;3.70;;;;;;;;;;5074435;28;20198;-74
2023/09/28 05:00:16;;;;;;;5.70;3.90;;;;;;;;;;5074325;28;20711;-74
2023/09/28 05:02:47;;;;;;;5.38;3.75;;;;;;;;;;5073077;28;20229;-74
2023/09/28 05:05:16;;;;;;;5.32;3.70;;;;;;;;;;5072907;28;20193;-74
2023/09/28 05:07:43;;;;;;;5.53;5.03;;;;;;;;;;5065728;28;20218;-74
2023/09/28 05:10:11;;;;;;;4.75;4.35;;;;;;;;;;5057614;28;20183;-74
2023/09/28 05:12:41;;;;;;;6.95;6.25;;;;;;;;;;5054064;28;20286;-74
2023/09/28 05:15:09;;;;;;;5.32;4.07;;;;;;;;;;5051390;28;20198;-74
2023/09/28 05:17:39;;;;;;;5.13;4.10;;;;;;;;;;5058594;28;20212;-74
2023/09/28 05:20:08;;;;;;;6.32;4.45;;;;;;;;;;5057943;28;20202;-74
2023/09/28 05:22:40;;;;;;;5.40;4.75;;;;;;;;;;5053493;28;20224;-74
2023/09/28 05:25:08;;;;;;;5.95;4.20;;;;;;;;;;5053537;28;20187;-74
2023/09/28 05:27:40;;;;;;;5.63;3.90;;;;;;;;;;5053179;28;20333;-74
2023/09/28 05:30:08;;;;;;;6.30;4.38;;;;;;;;;;5053849;28;20190;-74
2023/09/28 05:32:36;;;;;;;4.57;3.67;;;;;;;;;;5053860;28;20195;-74
2023/09/28 05:35:05;;;;;;;5.53;3.65;;;;;;;;;;5068370;28;20194;-74
2023/09/28 05:37:33;;;;;;;4.20;3.08;;;;;;;;;;5057608;28;20194;-74
2023/09/28 05:40:03;;;;;;;4.93;2.70;;;;;;;;;;5053396;28;20281;-74
2023/09/28 05:42:33;;;;;;;3.80;3.08;;;;;;;;;;5053117;28;20254;-74
2023/09/28 05:45:01;;;;;;;4.47;3.00;;;;;;;;;;5062284;28;20280;-74
2023/09/28 05:47:28;;;;;;;4.90;3.30;;;;;;;;;;5062220;28;20218;-74
2023/09/28 05:49:58;;;;;;;6.23;3.93;;;;;;;;;;5062304;28;20190;-74
2023/09/28 05:52:29;;;;;;;6.07;3.97;;;;;;;;;;5054994;28;20759;-74
2023/09/28 05:54:57;;;;;;;9.13;6.50;;;;;;;;;;5064531;28;20543;-74
2023/09/28 05:57:29;;;;;;;6.77;5.17;;;;;;;;;;5065312;28;20960;-74
2023/09/28 05:59:57;;;;;;;7.43;4.72;;;;;;;;;;5053190;28;20831;-74
2023/09/28 06:02:26;;;;;;;5.67;4.67;;;;;;;;;;5052886;28;20201;-74
2023/09/28 06:04:54;;;;;;;8.70;6.67;;;;;;;;;;5052452;28;20999;-74
2023/09/28 06:07:24;;;;;;;5.53;4.03;;;;;;;;;;5052307;28;20485;-74
2023/09/28 06:09:53;;;;;;;5.07;3.70;;;;;;;;;;5052974;28;20444;-74
2023/09/28 06:12:21;;;;;;;4.63;3.60;;;;;;;;;;5052395;28;20440;-74
2023/09/28 06:14:50;;;;;;;6.20;4.27;;;;;;;;;;5051944;28;20429;-74
2023/09/28 06:17:23;;;;;;;5.80;3.50;;;;;;;;;;5053016;28;20464;-75
2023/09/28 06:19:51;;;;;;;6.57;4.27;;;;;;;;;;5052957;28;20469;-74
2023/09/28 06:22:18;;;;;;;5.83;4.00;;;;;;;;;;5052000;28;20433;-74
2023/09/28 06:24:46;;;;;;;5.00;3.90;;;;;;;;;;5052410;28;20437;-74
2023/09/28 06:27:16;;;;;;;4.93;3.60;;;;;;;;;;5052454;28;20555;-74
2023/09/28 06:29:50;;;;;;;5.27;4.60;;;;;;;;;;5052446;28;20442;-74
2023/09/28 06:32:22;;;;;;;7.00;5.50;;;;;;;;;;5070131;28;20421;-74
2023/09/28 06:34:50;;;;;;;5.73;4.90;;;;;;;;;;5072593;28;20482;-74
2023/09/28 06:37:18;;;;;;;7.17;4.60;;;;;;;;;;5072263;28;20926;-75
2023/09/28 06:39:45;;;;;;;5.50;3.97;;;;;;;;;;5058069;28;20469;-75
2023/09/28 06:42:14;;;;;;;7.73;3.40;;;;;;;;;;5061579;28;20538;-74
2023/09/28 06:44:46;;;;;;;4.87;3.77;;;;;;;;;;5052694;28;20477;-74
2023/09/28 06:47:15;;;;;;;5.57;3.67;;;;;;;;;;5061359;28;20464;-74
2023/09/28 06:49:47;;;;;;;4.47;3.07;;;;;;;;;;5073035;28;20440;-74
2023/09/28 06:52:16;;;;;;;5.10;3.03;;;;;;;;;;5073056;28;20420;-75
2023/09/28 06:54:45;;;;;;;3.90;3.23;;;;;;;;;;5072755;28;20463;-74
2023/09/28 06:57:19;;;;;;;4.30;3.50;;;;;;;;;;5073444;28;20505;-74
2023/09/28 06:59:51;;;;;;;5.70;3.27;;;;;;;;;;5072815;28;20429;-74
2023/09/28 07:02:19;;;;;;;4.00;3.20;;;;;;;;;;5073143;28;20498;-75
2023/09/28 07:04:49;;;;;;;3.70;2.70;;;;;;;;;;5072734;28;20443;-75
2023/09/28 07:07:17;;;;;;;4.57;3.60;;;;;;;;;;5072811;28;20479;-75
2023/09/28 07:09:51;;;;;;;3.97;2.83;;;;;;;;;;5073164;28;20442;-75
2023/09/28 07:12:23;;;;;;;8.90;3.00;;;;;;;;;;5073018;28;20431;-75
2023/09/28 07:14:52;;;;;;;4.40;3.03;;;;;;;;;;5072644;28;20903;-75
2023/09/28 07:17:21;;;;;;;5.70;2.93;;;;;;;;;;5072605;28;20436;-75
2023/09/28 07:19:49;;;;;;;4.80;2.40;;;;;;;;;;5072437;28;20538;-75
2023/09/28 07:22:22;;;;;;;4.37;2.60;;;;;;;;;;5074383;28;20637;-75
2023/09/28 07:24:56;;;;;;;5.20;2.50;;;;;;;;;;5076667;28;20513;-75
2023/09/28 07:27:30;;;;;;;4.00;2.60;;;;;;;;;;5076701;28;20459;-75
2023/09/28 07:29:59;;;;;;;5.43;3.03;;;;;;;;;;5076951;28;20485;-75
2023/09/28 07:32:29;;;;;;;4.07;2.60;;;;;;;;;;5076734;28;20458;-75
2023/09/28 07:34:57;;;;;;;3.87;2.87;;;;;;;;;;5076523;28;20439;-76
2023/09/28 07:37:25;;;;;;;4.33;2.93;;;;;;;;;;5076212;28;20440;-75
2023/09/28 07:39:53;;;;;;;8.70;2.70;;;;;;;;;;5076217;28;20439;-75
2023/09/28 07:42:20;;;;;;;6.17;2.70;;;;;;;;;;5076597;28;20519;-75
2023/09/28 07:44:48;;;;;;;4.90;2.67;;;;;;;;;;5076156;28;20437;-75
2023/09/28 07:47:20;;;;;;;3.83;2.97;;;;;;;;;;5076306;28;20474;-76
2023/09/28 07:49:49;;;;;;;4.43;2.70;;;;;;;;;;5076458;28;20428;-75
2023/09/28 07:52:21;;;;;;;6.77;2.80;;;;;;;;;;5075893;28;20443;-75
2023/09/28 07:54:48;;;;;;;6.03;3.23;;;;;;;;;;5076034;28;20426;-75
2023/09/28 07:57:16;;;;;;;10.43;3.13;;;;;;;;;;5076187;28;20444;-75
2023/09/28 07:59:44;;;;;;;3.70;2.50;;;;;;;;;;5076276;28;20499;-75
2023/09/28 08:02:16;;;;;;;5.17;2.90;;;;;;;;;;5076183;28;20504;-75
2023/09/28 08:04:43;;;;;;;7.20;2.87;;;;;;;;;;5075844;28;20481;-75
2023/09/28 08:07:11;;;;;;;5.20;2.00;;;;;;;;;;5075963;28;20436;-75
2023/09/28 08:09:47;;;;;;;4.03;2.53;;;;;;;;;;5075966;28;20482;-75
2023/09/28 08:12:14;;;;;;;4.07;2.70;;;;;;;;;;5075943;28;20446;-75
2023/09/28 08:14:47;;;;;;;3.80;2.77;;;;;;;;;;5075901;28;20432;-75
2023/09/28 08:17:18;;;;;;;4.50;3.00;;;;;;;;;;5075964;28;20831;-76
2023/09/28 08:19:45;;;;;;;4.37;2.87;;;;;;;;;;5075497;28;20490;-75
2023/09/28 08:22:12;;;;;;;5.30;2.90;;;;;;;;;;5075663;28;20820;-76
2023/09/28 08:24:40;;;;;;;5.47;2.33;;;;;;;;;;5075407;28;20462;-76
2023/09/28 08:27:09;;;;;;;3.53;2.50;;;;;;;;;;5075385;28;20472;-76
2023/09/28 08:29:37;;;;;;;4.03;2.53;;;;;;;;;;5075802;28;20437;-76
2023/09/28 08:32:04;;;;;;;5.17;2.57;;;;;;;;;;5075317;28;20440;-76
2023/09/28 08:34:31;;;;;;;7.40;2.67;;;;;;;;;;5071998;28;20440;-75
2023/09/28 08:36:59;;;;;;;6.17;2.80;;;;;;;;;;5075056;28;20525;-76
2023/09/28 08:39:26;;;;;;;4.40;2.50;;;;;;;;;;5074992;28;20494;-76
2023/09/28 08:41:55;;;;;;;6.70;2.60;;;;;;;;;;5075372;28;20472;-76
2023/09/28 08:44:26;;;;;;;6.70;2.50;;;;;;;;;;5074944;28;20433;-76
2023/09/28 08:46:58;;;;;;;5.00;3.10;;;;;;;;;;5075078;28;20425;-76
2023/09/28 08:49:27;;;;;;;4.07;2.77;;;;;;;;;;5074970;28;20421;-75
2023/09/28 08:51:55;;;;;;;6.00;2.70;;;;;;;;;;5074841;28;20433;-76
2023/09/28 08:54:23;;;;;;;3.27;2.67;;;;;;;;;;5074984;28;20494;-76
2023/09/28 08:56:52;;;;;;;4.60;2.37;;;;;;;;;;5075054;28;20464;-76
2023/09/28 08:59:20;;;;;;;3.67;2.30;;;;;;;;;;5075137;28;20452;-76
2023/09/28 09:01:49;;;;;;;5.10;2.40;;;;;;;;;;5075087;28;20759;-76
2023/09/28 09:04:16;;;;;;;6.70;2.70;;;;;;;;;;5074688;28;20440;-76
2023/09/28 09:06:44;;;;;;;4.00;2.50;;;;;;;;;;5074928;28;20478;-76
2023/09/28 09:09:15;;;;;;;3.93;2.60;;;;;;;;;;5074929;28;20468;-76
2023/09/28 09:11:47;;;;;;;6.13;2.30;;;;;;;;;;5074714;28;20517;-76
2023/09/28 09:14:14;;;;;;;3.10;2.40;;;;;;;;;;5074557;28;20417;-76
2023/09/28 09:16:42;;;;;;;5.20;2.33;;;;;;;;;;5074542;28;20781;-76
2023/09/28 09:19:14;;;;;;;4.50;2.57;;;;;;;;;;5074681;28;20538;-76
2023/09/28 09:21:43;;;;;;;4.03;2.60;;;;;;;;;;5074355;28;20425;-76
2023/09/28 09:24:13;;;;;;;4.63;2.90;;;;;;;;;;5074372;28;20490;-76
2023/09/28 09:26:41;;;;;;;3.73;2.60;;;;;;;;;;5074283;28;20428;-76
2023/09/28 09:29:09;;;;;;;4.50;2.60;;;;;;;;;;5074717;28;20455;-76
2023/09/28 09:31:38;;;;;;;3.40;2.80;;;;;;;;;;5074566;28;20863;-74
2023/09/28 09:34:06;;;;;;;3.00;2.20;;;;;;;;;;5074150;28;20436;-73
2023/09/28 09:36:34;;;;;;;4.93;2.90;;;;;;;;;;5074377;28;20437;-73
2023/09/28 09:39:02;;;;;;;3.83;2.70;;;;;;;;;;5074360;28;20472;-74
2023/09/28 09:41:30;;;;;;;4.60;2.80;;;;;;;;;;5074367;28;20523;-74
2023/09/28 09:43:59;;;;;;;5.20;2.73;;;;;;;;;;5074116;28;20907;-74
2023/09/28 09:46:27;;;;;;;7.37;2.80;;;;;;;;;;5074136;28;20453;-74
2023/09/28 09:48:54;;;;;;;3.50;2.50;;;;;;;;;;5073728;28;20552;-75
2023/09/28 09:51:23;;;;;;;3.50;3.10;;;;;;;;;;5074056;28;20436;-75
2023/09/28 09:53:52;;;;;;;3.73;3.00;;;;;;;;;;5073777;28;20428;-75
2023/09/28 09:56:19;;;;;;;4.20;2.77;;;;;;;;;;5073686;28;20427;-75
2023/09/28 09:58:48;;;;;;;8.27;3.37;;;;;;;;;;5073980;28;20837;-75
2023/09/28 10:01:16;;;;;;;6.13;3.80;;;;;;;;;;5073911;28;20427;-75
2023/09/28 10:03:46;;;;;;;4.83;2.83;;;;;;;;;;5073649;28;20431;-74
2023/09/28 10:06:15;;;;;;;6.23;2.97;;;;;;;;;;5073708;28;20432;-75
2023/09/28 10:08:43;;;;;;;5.03;2.57;;;;;;;;;;5073462;28;20618;-74
2023/09/28 10:11:12;;;;;;;3.83;3.00;;;;;;;;;;5073657;28;20442;-75
2023/09/28 10:13:40;;;;;;;4.63;2.90;;;;;;;;;;5073675;28;20485;-75
2023/09/28 10:16:08;;;;;;;4.60;2.90;;;;;;;;;;5073681;28;20463;-75
2023/09/28 10:18:37;;;;;;;3.57;2.90;;;;;;;;;;5073328;28;21018;-74
2023/09/28 10:21:05;;;;;;;4.10;3.33;;;;;;;;;;5073174;28;20438;-75
2023/09/28 10:23:32;;;;;;;4.47;3.20;;;;;;;;;;5073666;28;20436;-75
2023/09/28 10:26:03;;;;;;;7.57;3.43;;;;;;;;;;5073502;28;20493;-75
2023/09/28 10:28:33;;;;;;;3.53;2.57;;;;;;;;;;5073642;28;20464;-75
2023/09/28 10:31:10;;;;;;;5.47;3.90;;;;;;;;;;5073220;28;20449;-75
2023/09/28 10:33:58;;;;;;;5.17;2.90;;;;;;;;;;5073566;28;20535;-75
2023/09/28 10:36:27;;;;;;;4.00;3.23;;;;;;;;;;5073043;28;20417;-75
2023/09/28 10:39:18;;;;;;;3.95;3.33;;;;;;;;;;5073043;28;20493;-75
2023/09/28 10:41:46;;;;;;;3.70;3.10;;;;;;;;;;5053589;28;20200;-75
2023/09/28 10:44:16;;;;;;;4.40;3.40;;;;;;;;;;5073018;28;20524;-75
2023/09/28 10:46:44;;;;;;;3.67;3.30;;;;;;;;;;5073350;28;20438;-75
2023/09/28 10:49:15;;;;;;;3.57;3.00;;;;;;;;;;5072958;28;20900;-75
2023/09/28 10:51:42;;;;;;;3.87;3.47;;;;;;;;;;5073404;28;20178;-75
2023/09/28 10:54:10;;;;;;;3.87;3.50;;;;;;;;;;5073029;28;20438;-74
2023/09/28 10:56:39;;;;;;;3.40;3.03;;;;;;;;;;5072482;28;20443;-75
2023/09/28 10:59:07;;;;;;;3.67;3.27;;;;;;;;;;5072946;28;20436;-75
2023/09/28 11:01:40;;;;;;;4.43;2.90;;;;;;;;;;5072911;28;20489;-75
2023/09/28 11:04:07;;;;;;;3.83;3.23;;;;;;;;;;5072912;28;20474;-75
2023/09/28 11:06:35;;;;;;;4.33;3.10;;;;;;;;;;5072558;28;20918;-75
2023/09/28 11:09:02;;;;;;;5.53;3.10;;;;;;;;;;5073044;28;20558;-74
2023/09/28 11:11:30;;;;;;;3.47;2.90;;;;;;;;;;5072854;28;20913;-74
2023/09/28 11:13:58;;;;;;;3.70;2.87;;;;;;;;;;5072854;28;20436;-75
2023/09/28 11:16:26;;;;;;;4.03;3.40;;;;;;;;;;5072715;28;20428;-75
2023/09/28 11:18:56;;;;;;;3.70;2.77;;;;;;;;;;5072810;28;20464;-75
2023/09/28 11:21:23;;;;;;;3.80;3.20;;;;;;;;;;5072678;28;20829;-75
2023/09/28 11:23:51;;;;;;;6.40;2.93;;;;;;;;;;5073052;28;20512;-75
2023/09/28 11:26:19;;;;;;;5.23;3.43;;;;;;;;;;5072671;28;20517;-75
2023/09/28 11:28:47;;;;;;;3.67;3.30;;;;;;;;;;5072964;28;20728;-75
2023/09/28 11:31:15;;;;;;;6.60;3.40;;;;;;;;;;5072995;28;20485;-75
2023/09/28 11:33:43;;;;;;;3.70;3.00;;;;;;;;;;5072911;28;20851;-75
2023/09/28 11:36:14;;;;;;;3.87;3.37;;;;;;;;;;5072853;28;20493;-75
2023/09/28 11:38:41;;;;;;;3.60;2.97;;;;;;;;;;5072587;28;20427;-75
2023/09/28 11:41:09;;;;;;;5.90;3.80;;;;;;;;;;5072684;28;20431;-75
2023/09/28 11:43:45;;;;;;;4.60;3.27;;;;;;;;;;5072509;28;20440;-75
2023/09/28 11:46:22;;;;;;;6.90;3.60;;;;;;;;;;5072469;28;20428;-75
2023/09/28 11:49:02;;;;;;;4.03;3.50;;;;;;;;;;5072792;28;20494;-75
2023/09/28 11:51:32;;;;;;;4.80;4.10;;;;;;;;;;5072349;28;20797;-75
2023/09/28 11:54:14;;;;;;;4.40;3.57;;;;;;;;;;5072345;28;20436;-75
2023/09/28 11:56:46;;;;;;;4.53;3.40;;;;;;;;;;5072392;28;20834;-75
2023/09/28 11:59:15;;;;;;;3.83;3.43;;;;;;;;;;5072325;28;20910;-75
2023/09/28 12:01:51;;;;;;;6.23;3.30;;;;;;;;;;5072847;28;20861;-75
2023/09/28 12:04:19;;;;;;;4.43;3.50;;;;;;;;;;5072769;28;20425;-75
2023/09/28 12:06:51;;;;;;;6.43;3.43;;;;;;;;;;5072407;28;20500;-75
2023/09/28 12:09:20;;;;;;;4.57;3.43;;;;;;;;;;5075674;28;20550;-75
2023/09/28 12:11:49;;;;;;;5.00;3.53;;;;;;;;;;5075728;28;20925;-75
2023/09/28 12:14:19;;;;;;;6.60;3.43;;;;;;;;;;5076077;28;20579;-75
2023/09/28 12:16:46;;;;;;;5.37;3.80;;;;;;;;;;5075643;28;20949;-75
2023/09/28 12:19:13;;;;;;;5.50;2.87;;;;;;;;;;5075557;28;20886;-75
2023/09/28 12:21:45;;;;;;;3.97;3.20;;;;;;;;;;5075641;28;20474;-75
2023/09/28 12:24:14;;;;;;;4.03;3.30;;;;;;;;;;5075613;28;20467;-75
2023/09/28 12:26:49;;;;;;;6.77;3.60;;;;;;;;;;5075652;28;20504;-75
2023/09/28 12:29:23;;;;;;;4.40;3.37;;;;;;;;;;5075777;28;20517;-75
2023/09/28 12:31:50;;;;;;;4.60;3.40;;;;;;;;;;5075746;28;20444;-75
2023/09/28 12:34:18;;;;;;;3.70;3.10;;;;;;;;;;5075799;28;20520;-75
2023/09/28 12:36:45;;;;;;;4.47;3.10;;;;;;;;;;5075334;28;20519;-75
2023/09/28 12:39:21;;;;;;;4.10;2.97;;;;;;;;;;5075668;28;20428;-75
2023/09/28 12:41:49;;;;;;;7.43;3.60;;;;;;;;;;5075358;28;20424;-75
2023/09/28 12:44:17;;;;;;;3.77;3.17;;;;;;;;;;5075792;28;20588;-75
2023/09/28 12:46:44;;;;;;;4.97;3.30;;;;;;;;;;5075593;28;20498;-74
2023/09/28 12:49:16;;;;;;;4.17;3.23;;;;;;;;;;5075122;28;20471;-75
2023/09/28 12:51:47;;;;;;;5.00;3.60;;;;;;;;;;5075215;28;20421;-74
2023/09/28 12:54:17;;;;;;;4.20;3.50;;;;;;;;;;5075605;28;20421;-74
2023/09/28 12:56:51;;;;;;;5.37;3.30;;;;;;;;;;5075530;28;20439;-74
2023/09/28 12:59:18;;;;;;;5.00;3.03;;;;;;;;;;5075439;28;20437;-74
2023/09/28 13:01:47;;;;;;;4.57;3.60;;;;;;;;;;5075350;28;20436;-74
2023/09/28 13:04:15;;;;;;;5.30;3.30;;;;;;;;;;5074963;28;20915;-74
2023/09/28 13:06:43;;;;;;;3.70;2.70;;;;;;;;;;5075125;28;20468;-74
2023/09/28 13:09:10;;;;;;;5.67;3.60;;;;;;;;;;5075122;28;20476;-74
2023/09/28 13:11:40;;;;;;;6.13;2.93;;;;;;;;;;5075195;28;20479;-74
2023/09/28 13:14:08;;;;;;;5.30;3.27;;;;;;;;;;5075125;28;20425;-74
2023/09/28 13:16:35;;;;;;;3.93;3.23;;;;;;;;;;5074672;28;20436;-73
2023/09/28 13:19:03;;;;;;;6.30;3.10;;;;;;;;;;5073794;28;20472;-74
2023/09/28 13:21:31;;;;;;;5.30;3.47;;;;;;;;;;5074455;28;20922;-74
2023/09/28 13:23:58;;;;;;;4.77;3.17;;;;;;;;;;5074895;28;20441;-74
2023/09/28 13:26:28;;;;;;;5.87;3.23;;;;;;;;;;5074746;28;20449;-73
2023/09/28 13:29:06;;;;;;;3.83;2.50;;;29.60;30.40;;;;;;5074388;28;21027;-74
2023/09/28 13:31:35;;;;;;;6.10;3.10;;;36.90;18.90;;;;;;5074699;28;20417;-73
2023/09/28 13:34:03;;;;;;;6.00;3.50;;;35.80;19.60;;;;;;5074649;28;20564;-74
2023/09/28 13:36:35;;;;;;;3.53;2.53;;;35.10;20.80;;;;;;5074514;28;20441;-74
2023/09/28 13:39:04;;;;;;;5.57;3.43;;;34.50;21.00;;;;;;5074736;28;20438;-73
2023/09/28 13:41:32;;;;;;;4.70;3.17;;;34.00;21.40;;;;;;5074245;28;20476;-73
2023/09/28 13:44:03;;;;;;;5.00;2.77;;;33.60;21.60;;;;;;5074232;28;20432;-73
2023/09/28 13:46:30;;;;;;;7.30;3.70;;;33.10;22.30;;;;;;5074452;28;20501;-74
2023/09/28 13:48:57;;;;;;;5.00;3.13;;;32.80;22.60;;;;;;5074121;28;20472;-73
2023/09/28 13:51:32;;;;;;;4.57;2.83;;;32.40;23.50;;;;;;5074204;28;20428;-73
2023/09/28 13:54:01;;;;;;;5.10;3.40;;;32.10;23.40;;;;;;5073951;28;20980;-74
2023/09/28 13:56:37;;;;;;;5.43;3.40;;;31.80;24.20;;;;;;5074257;28;20776;-74
2023/09/28 13:59:09;;;;;;;4.30;2.90;;;31.60;24.80;;;;;;5074386;28;20429;-76
2023/09/28 14:01:43;;;;;;;4.40;2.90;;;31.30;24.90;;;;;;5074336;28;20751;-76
2023/09/28 14:04:12;;;;;;;4.70;3.17;;;31.10;24.50;;;;;;5074181;28;20429;-76
2023/09/28 14:06:40;;;;;;;5.83;2.87;;;31.00;25.20;;;;;;5074036;28;20428;-76
2023/09/28 14:09:24;;;;;;;4.60;2.83;;;30.80;25.20;;;;;;5073784;28;20472;-76
2023/09/28 14:11:51;;;;;;;5.83;2.77;;;30.60;26.00;;;;;;5073803;28;20469;-76
2023/09/28 14:14:22;;;;;;;4.80;2.87;;;30.40;26.20;;;;;;5073657;28;20482;-76
2023/09/28 14:16:49;;;;;;;4.70;2.97;;;30.20;26.90;;;;;;5073289;28;20430;-76
2023/09/28 14:19:17;;;;;;;5.00;3.00;;;29.90;27.50;;;;;;5073333;28;20476;-76
2023/09/28 14:21:44;;;;;;;4.17;2.57;;;29.60;28.30;;;;;;5073381;28;20443;-76
2023/09/28 14:24:16;;;;;;;5.30;2.50;;;29.40;28.30;;;;;;5073729;28;20444;-76
2023/09/28 14:26:43;;;;;;;4.93;3.10;;;29.10;28.20;;;;;;5073796;28;20420;-76
2023/09/28 14:29:11;;;;;;;5.73;3.37;;;;;;;;;;5073496;28;20475;-76
2023/09/28 14:31:40;;;;;;;4.53;2.90;;;;;;;;;;5073242;28;20441;-76
2023/09/28 14:34:08;;;;;;;4.60;3.17;;;;;;;;;;5073514;28;20432;-76
2023/09/28 14:36:35;;;;;;;9.53;3.07;;;;;;;;;;5052290;28;20430;-76
2023/09/28 14:39:02;;;;;;;6.53;3.27;;;;;;;;;;5053293;28;20495;-76
2023/09/28 14:41:30;;;;;;;5.20;2.90;;;;;;;;;;5053303;28;20437;-76
2023/09/28 14:43:57;;;;;;;6.27;3.23;;;;;;;;;;5052983;28;20441;-76
2023/09/28 14:46:25;;;;;;;5.57;3.13;;;;;;;;;;5052655;28;20437;-76